DLH9KX EDDF-EDDH
Flight info
| Callsign | DLH9KX |
|---|---|
| Flight time | N/A |
| Altitude | 35000 |
| Route | MARUN3W/25C MARUN Y150 TOLGI DCT SAS/N0437F340 P605 NOLGO NOLGO6A |
| Aircraft | A321/M-SDE3FGHIRWY/LB1 |
Departure
| Time | 2026-05-06 14:20 |
|---|---|
| Airport | Frankfurt Main Airport (EDDF) |
Arrival
| Time | N/A |
|---|---|
| Airport | Hamburg Helmut Schmidt Airport (EDDH) |
| Time | Latitude | Longitude | Altitude | Speed | Heading |
|---|---|---|---|---|---|
| 2026-05-06 13:40 | 50.04850 | 8.56952 | 361 ft | 0 kts | 295° |
| 2026-05-06 14:08 | 50.04846 | 8.56965 | 356 ft | 4 kts | 292° |
| 2026-05-06 14:09 | 50.04838 | 8.57005 | 362 ft | 4 kts | 279° |
| 2026-05-06 14:09 | 50.04837 | 8.57046 | 361 ft | 4 kts | 253° |
| 2026-05-06 14:09 | 50.04849 | 8.57074 | 364 ft | 3 kts | 206° |
| 2026-05-06 14:09 | 50.04830 | 8.57061 | 364 ft | 4 kts | 205° |
| 2026-05-06 14:10 | 50.04805 | 8.57043 | 359 ft | 4 kts | 205° |
| 2026-05-06 14:10 | 50.04783 | 8.57026 | 356 ft | 2 kts | 205° |
| 2026-05-06 14:10 | 50.04782 | 8.57026 | 356 ft | 0 kts | 205° |
| 2026-05-06 14:13 | 50.04774 | 8.57020 | 363 ft | 3 kts | 205° |
| 2026-05-06 14:13 | 50.04742 | 8.56997 | 358 ft | 7 kts | 204° |
| 2026-05-06 14:13 | 50.04688 | 8.56959 | 359 ft | 10 kts | 205° |
| 2026-05-06 14:13 | 50.04621 | 8.56918 | 358 ft | 11 kts | 195° |
| 2026-05-06 14:14 | 50.04550 | 8.56890 | 362 ft | 9 kts | 193° |
| 2026-05-06 14:14 | 50.04483 | 8.56866 | 361 ft | 10 kts | 193° |
| 2026-05-06 14:14 | 50.04410 | 8.56845 | 364 ft | 11 kts | 188° |
| 2026-05-06 14:14 | 50.04331 | 8.56824 | 360 ft | 12 kts | 190° |
| 2026-05-06 14:15 | 50.04280 | 8.56901 | 360 ft | 13 kts | 86° |
| 2026-05-06 14:15 | 50.04309 | 8.57040 | 364 ft | 14 kts | 70° |
| 2026-05-06 14:15 | 50.04341 | 8.57177 | 361 ft | 14 kts | 69° |
| 2026-05-06 14:15 | 50.04376 | 8.57322 | 363 ft | 15 kts | 69° |
| 2026-05-06 14:16 | 50.04415 | 8.57479 | 365 ft | 16 kts | 69° |
| 2026-05-06 14:16 | 50.04426 | 8.57606 | 366 ft | 10 kts | 112° |
| 2026-05-06 14:16 | 50.04368 | 8.57668 | 364 ft | 11 kts | 156° |
| 2026-05-06 14:16 | 50.04305 | 8.57708 | 364 ft | 8 kts | 170° |
| 2026-05-06 14:17 | 50.04271 | 8.57671 | 363 ft | 0 kts | 241° |
| 2026-05-06 14:19 | 50.04228 | 8.57508 | 364 ft | 50 kts | 250° |
| 2026-05-06 14:19 | 50.04021 | 8.56644 | 362 ft | 119 kts | 249° |
| 2026-05-06 14:19 | 50.03664 | 8.55146 | 391 ft | 169 kts | 249° |
| 2026-05-06 14:20 | 50.03262 | 8.53428 | 1103 ft | 170 kts | 249° |
| 2026-05-06 14:20 | 50.02860 | 8.51688 | 1840 ft | 171 kts | 251° |
| 2026-05-06 14:20 | 50.02434 | 8.50019 | 2619 ft | 159 kts | 235° |
| 2026-05-06 14:20 | 50.01682 | 8.48906 | 3491 ft | 140 kts | 217° |
| 2026-05-06 14:21 | 50.00842 | 8.48232 | 4190 ft | 134 kts | 202° |
| 2026-05-06 14:21 | 49.99905 | 8.47904 | 4594 ft | 147 kts | 191° |
| 2026-05-06 14:21 | 49.98839 | 8.47676 | 4983 ft | 158 kts | 191° |
| 2026-05-06 14:21 | 49.97739 | 8.47442 | 5540 ft | 160 kts | 191° |
| 2026-05-06 14:22 | 49.96626 | 8.47199 | 6118 ft | 164 kts | 190° |
| 2026-05-06 14:22 | 49.95448 | 8.46774 | 6372 ft | 185 kts | 198° |
| 2026-05-06 14:22 | 49.94146 | 8.46176 | 6571 ft | 206 kts | 198° |
| 2026-05-06 14:22 | 49.92708 | 8.45471 | 6701 ft | 227 kts | 204° |
| 2026-05-06 14:23 | 49.91418 | 8.43947 | 6983 ft | 240 kts | 231° |
| 2026-05-06 14:23 | 49.90709 | 8.41577 | 7564 ft | 247 kts | 258° |
| 2026-05-06 14:23 | 49.90791 | 8.38902 | 8258 ft | 255 kts | 286° |
| 2026-05-06 14:23 | 49.91726 | 8.36549 | 8957 ft | 264 kts | 316° |
| 2026-05-06 14:24 | 49.93327 | 8.35097 | 9583 ft | 275 kts | 334° |
| 2026-05-06 14:24 | 49.95156 | 8.33902 | 9881 ft | 293 kts | 335° |
| 2026-05-06 14:24 | 49.97120 | 8.32642 | 10025 ft | 317 kts | 335° |
| 2026-05-06 14:24 | 49.99277 | 8.31511 | 10157 ft | 341 kts | 348° |
| 2026-05-06 14:25 | 50.01693 | 8.31618 | 10461 ft | 357 kts | 13° |
| 2026-05-06 14:25 | 50.03994 | 8.33155 | 11005 ft | 363 kts | 27° |
| 2026-05-06 14:25 | 50.06192 | 8.35021 | 11607 ft | 366 kts | 28° |